This is the latest recevied weather packets stored in our database for station/object DL6JOE-10. If no packets are shown the sender has not sent any weather packets the latest 10 day(s).
| Time | Temp. | Humidity | Pressure | Rain* | Wind** | Luminosity | Snow |
|---|---|---|---|---|---|---|---|
| 1788599607 | 22.78° C | 56% | 968.9 hPa | - | - | - | - |
| 1788598707 | 22.22° C | 57% | 968.8 hPa | - | - | - | - |
| 1788597807 | 21.67° C | 57% | 968.9 hPa | - | - | - | - |
| 1788596907 | 21.11° C | 58% | 968.7 hPa | - | - | - | - |
| 1788596007 | 20.56° C | 58% | 968.8 hPa | - | - | - | - |
| 1788595107 | 20.56° C | 58% | 968.7 hPa | - | - | - | - |
| 1788594206 | 20.56° C | 57% | 968.6 hPa | - | - | - | - |
| 1788593306 | 20.56° C | 56% | 968.4 hPa | - | - | - | - |
| 1788592406 | 20° C | 56% | 968.4 hPa | - | - | - | - |
| 1788591506 | 20° C | 56% | 968.2 hPa | - | - | - | - |
| 1788590606 | 20° C | 56% | 968.2 hPa | - | - | - | - |
| 1788589706 | 20° C | 56% | 968.1 hPa | - | - | - | - |
| 1788588806 | 20.56° C | 55% | 967.7 hPa | - | - | - | - |
| 1788587006 | 20.56° C | 52% | 968 hPa | - | - | - | - |
| 1788586106 | 20.56° C | 53% | 967.8 hPa | - | - | - | - |
| 1788564503 | 25° C | 43% | 963.7 hPa | - | - | - | - |
| 1788556402 | 26.67° C | 40% | 962.6 hPa | - | - | - | - |
| 1788555502 | 27.22° C | 38% | 962.5 hPa | - | - | - | - |
| 1788545601 | 30.56° C | 33% | 961.5 hPa | - | - | - | - |
| 1788538400 | 32.22° C | 32% | 961 hPa | - | - | - | - |
| 1788537500 | 32.22° C | 31% | 961.1 hPa | - | - | - | - |
| 1788536600 | 32.78° C | 31% | 961.1 hPa | - | - | - | - |
| 1788535704 | 32.78° C | 31% | 961.2 hPa | - | - | - | - |
| 1788532099 | 33.89° C | 29% | 961.5 hPa | - | - | - | - |
| 1788531199 | 33.89° C | 29% | 961.6 hPa | - | - | - | - |
* Rain since midnight (hover to see other rain measurements)
** Current wind speed in m/s (hover to see current wind gust speed)